Time;durP1;ratioP1;P1;durP2;ratioP2;P2;SDS_P1;SDS_P2;PMS_P1;PMS_P2;Temp;Humidity;BMP_temperature;BMP_pressure;BME280_temperature;BME280_humidity;BME280_pressure;Samples;Min_cycle;Max_cycle;Signal;HPM_P1;HPM_P2
2021/04/23 00:01:22;;;;;;;15.38;7.25;;;3.30;93.20;;;;;;5100712;28;20497;-62
2021/04/23 00:03:54;;;;;;;12.80;6.82;;;3.30;92.80;;;;;;5098660;28;20040;-62
2021/04/23 00:06:24;;;;;;;12.32;6.70;;;3.30;93.00;;;;;;5098416;28;20032;-62
2021/04/23 00:08:54;;;;;;;12.70;6.93;;;3.30;92.80;;;;;;5099445;27;20068;-62
2021/04/23 00:11:27;;;;;;;14.15;7.00;;;3.30;93.00;;;;;;5099608;27;20036;-63
2021/04/23 00:13:53;;;;;;;15.93;6.82;;;3.40;93.60;;;;;;5092575;28;20114;-63
2021/04/23 00:16:19;;;;;;;13.73;6.65;;;3.40;93.30;;;;;;5105939;27;20098;-63
2021/04/23 00:18:45;;;;;;;16.17;7.22;;;3.50;93.30;;;;;;5093008;28;20163;-63
2021/04/23 00:21:12;;;;;;;17.88;7.53;;;3.50;93.30;;;;;;5101596;27;20127;-62
2021/04/23 00:23:39;;;;;;;14.68;6.57;;;3.60;93.50;;;;;;5092338;28;20047;-60
2021/04/23 00:26:07;;;;;;;18.08;7.65;;;3.60;93.40;;;;;;5115302;27;20044;-60
2021/04/23 00:28:35;;;;;;;16.45;6.80;;;3.60;93.50;;;;;;5093919;27;20048;-60
2021/04/23 00:31:03;;;;;;;12.40;6.50;;;3.70;93.50;;;;;;5101608;27;20055;-61
2021/04/23 00:33:29;;;;;;;14.40;7.03;;;3.70;93.70;;;;;;5097031;28;20081;-60
2021/04/23 00:35:55;;;;;;;18.05;7.10;;;3.70;93.40;;;;;;5105909;27;20036;-60
2021/04/23 00:38:25;;;;;;;20.00;7.15;;;3.80;93.60;;;;;;5101019;27;20085;-60
2021/04/23 00:41:02;;;;;;;19.25;7.43;;;3.80;93.40;;;;;;5104876;27;20063;-60
2021/04/23 00:43:31;;;;;;;14.30;7.30;;;3.80;93.60;;;;;;5098083;28;20136;-60
2021/04/23 00:45:58;;;;;;;15.05;7.32;;;3.80;93.60;;;;;;5097060;28;20486;-60
2021/04/23 00:48:27;;;;;;;16.88;6.32;;;3.80;93.40;;;;;;5095254;28;20036;-60
2021/04/23 00:50:56;;;;;;;18.50;6.78;;;3.80;93.70;;;;;;5103264;28;20036;-60
2021/04/23 00:53:28;;;;;;;17.13;7.22;;;3.80;93.40;;;;;;5094370;28;20040;-60
2021/04/23 00:55:56;;;;;;;12.25;6.00;;;3.80;93.60;;;;;;5104187;28;20445;-60
2021/04/23 00:58:25;;;;;;;13.32;6.65;;;3.70;93.40;;;;;;5105970;28;20448;-60
2021/04/23 01:01:02;;;;;;;15.13;6.22;;;3.70;93.50;;;;;;5104372;28;20078;-60
2021/04/23 01:03:29;;;;;;;14.68;5.97;;;3.70;93.40;;;;;;5099639;28;20451;-60
2021/04/23 01:05:56;;;;;;;16.23;6.57;;;3.70;93.20;;;;;;5093491;28;20031;-60
2021/04/23 01:08:26;;;;;;;15.00;6.40;;;3.70;93.30;;;;;;5101689;28;20075;-60
2021/04/23 01:11:00;;;;;;;12.70;5.78;;;3.60;93.50;;;;;;5093501;28;20038;-60
2021/04/23 01:13:31;;;;;;;15.65;6.47;;;3.50;93.60;;;;;;5098246;28;20052;-60
2021/04/23 01:16:02;;;;;;;14.85;6.55;;;3.50;93.40;;;;;;5093794;28;20068;-60
2021/04/23 01:18:28;;;;;;;16.38;6.75;;;3.40;93.20;;;;;;5101181;28;20036;-60
2021/04/23 01:21:14;;;;;;;13.23;5.90;;;3.40;93.60;;;;;;5092876;28;20066;-60
2021/04/23 01:23:41;;;;;;;16.38;5.72;;;3.30;93.50;;;;;;5097961;28;20061;-60
2021/04/23 01:26:09;;;;;;;15.18;6.63;;;3.30;93.40;;;;;;5097310;28;20390;-61
2021/04/23 01:28:37;;;;;;;13.73;5.65;;;3.30;93.50;;;;;;5100456;27;20118;-60
2021/04/23 01:31:06;;;;;;;18.10;5.15;;;3.30;93.70;;;;;;5092097;28;20044;-60
2021/04/23 01:33:33;;;;;;;14.77;6.38;;;3.30;94.10;;;;;;5104203;28;20445;-60
2021/04/23 01:35:58;;;;;;;21.02;6.95;;;3.30;94.00;;;;;;5095824;28;20048;-60
2021/04/23 01:38:24;;;;;;;16.42;5.63;;;3.20;94.30;;;;;;5103796;28;20101;-60
2021/04/23 01:40:50;;;;;;;13.75;5.45;;;3.20;94.30;;;;;;5098344;28;20032;-63
2021/04/23 01:43:18;;;;;;;13.85;5.47;;;3.20;94.50;;;;;;5103319;28;20164;-63
2021/04/23 01:45:45;;;;;;;11.20;5.38;;;3.20;94.60;;;;;;5093752;28;20122;-63
2021/04/23 01:48:12;;;;;;;14.95;5.45;;;3.10;94.20;;;;;;5101648;28;20047;-63
2021/04/23 01:50:39;;;;;;;17.20;6.50;;;3.10;93.90;;;;;;5094708;28;20486;-61
2021/04/23 01:53:05;;;;;;;14.55;5.82;;;3.00;94.10;;;;;;5100500;28;20712;-60
2021/04/23 01:55:32;;;;;;;9.93;5.65;;;3.00;93.70;;;;;;5103027;27;20122;-61
2021/04/23 01:57:57;;;;;;;12.10;5.32;;;2.90;93.80;;;;;;5097416;27;20489;-61
2021/04/23 02:00:29;;;;;;;10.57;5.25;;;2.90;94.10;;;;;;5104222;27;20044;-61
2021/04/23 02:02:58;;;;;;;14.30;6.50;;;2.90;94.10;;;;;;5098197;28;20059;-60
2021/04/23 02:05:24;;;;;;;12.00;6.05;;;2.80;93.90;;;;;;5102220;27;20039;-60
2021/04/23 02:07:50;;;;;;;13.90;5.70;;;2.80;93.80;;;;;;5098928;27;20119;-61
2021/04/23 02:10:20;;;;;;;14.70;6.03;;;2.80;93.80;;;;;;5108883;27;20186;-61
2021/04/23 02:12:47;;;;;;;10.40;5.20;;;2.80;93.80;;;;;;5096398;28;20127;-60
2021/04/23 02:15:15;;;;;;;15.15;5.53;;;2.70;94.10;;;;;;5103720;27;20040;-61
2021/04/23 02:17:42;;;;;;;16.83;5.72;;;2.70;94.10;;;;;;5103198;27;20050;-60
2021/04/23 02:20:13;;;;;;;12.68;5.60;;;2.70;94.00;;;;;;5101858;27;20494;-60
2021/04/23 02:22:40;;;;;;;17.63;5.82;;;2.60;94.10;;;;;;5097118;28;20517;-60
2021/04/23 02:25:08;;;;;;;16.90;5.85;;;2.60;94.20;;;;;;5098588;27;20077;-61
2021/04/23 02:27:33;;;;;;;15.60;6.25;;;2.60;94.20;;;;;;5099259;27;20092;-60
2021/04/23 02:29:59;;;;;;;14.25;5.93;;;2.50;94.00;;;;;;5102853;27;20051;-60
2021/04/23 02:32:25;;;;;;;18.90;6.10;;;2.50;94.30;;;;;;5093789;28;20039;-60
2021/04/23 02:34:51;;;;;;;17.13;5.70;;;2.50;94.70;;;;;;5105214;27;20102;-60
2021/04/23 02:37:17;;;;;;;11.60;5.25;;;2.40;94.40;;;;;;5100535;27;20040;-61
2021/04/23 02:39:43;;;;;;;13.30;5.55;;;2.50;94.70;;;;;;5099141;27;20039;-60
2021/04/23 02:42:09;;;;;;;10.65;4.40;;;2.50;94.70;;;;;;5100715;28;20401;-60
2021/04/23 02:44:35;;;;;;;20.33;5.57;;;2.50;94.80;;;;;;5099590;27;20043;-60
2021/04/23 02:47:01;;;;;;;12.13;6.00;;;2.40;94.50;;;;;;5102055;27;20038;-60
2021/04/23 02:49:27;;;;;;;17.17;5.43;;;2.40;94.40;;;;;;5098370;27;20043;-61
2021/04/23 02:51:53;;;;;;;14.32;5.32;;;2.40;94.70;;;;;;5108378;27;20440;-60
2021/04/23 02:54:20;;;;;;;18.67;5.57;;;2.30;94.80;;;;;;5092720;27;20051;-60
2021/04/23 02:56:47;;;;;;;13.52;5.40;;;2.30;95.00;;;;;;5109895;27;20051;-60
2021/04/23 02:59:14;;;;;;;12.05;4.63;;;2.30;94.80;;;;;;5098937;27;20122;-61
2021/04/23 03:01:43;;;;;;;13.13;5.28;;;2.30;95.10;;;;;;5107278;27;20191;-60
2021/04/23 03:04:09;;;;;;;14.23;5.03;;;2.30;95.00;;;;;;5100201;28;20169;-61
2021/04/23 03:06:36;;;;;;;12.32;4.80;;;2.30;94.60;;;;;;5107681;27;20068;-60
2021/04/23 03:09:06;;;;;;;13.60;4.78;;;2.30;94.80;;;;;;5096752;27;20039;-60
2021/04/23 03:11:33;;;;;;;12.95;4.93;;;2.30;94.90;;;;;;5103116;27;20039;-60
2021/04/23 03:14:00;;;;;;;15.35;6.50;;;2.30;94.90;;;;;;5095992;28;20730;-61
2021/04/23 03:16:28;;;;;;;10.23;4.68;;;2.30;95.30;;;;;;5104389;27;20122;-60
2021/04/23 03:18:55;;;;;;;12.32;4.40;;;2.20;95.20;;;;;;5104766;27;20044;-60
2021/04/23 03:21:25;;;;;;;14.35;5.32;;;2.20;95.30;;;;;;5102263;27;20138;-60
2021/04/23 03:23:51;;;;;;;16.98;5.18;;;2.20;95.00;;;;;;5100413;27;20156;-60
2021/04/23 03:26:19;;;;;;;11.80;4.57;;;2.20;95.60;;;;;;5097851;27;20036;-60
2021/04/23 03:28:46;;;;;;;13.85;4.97;;;2.20;95.50;;;;;;5106053;27;20035;-60
2021/04/23 03:31:13;;;;;;;18.52;4.90;;;2.20;95.80;;;;;;5097658;27;20046;-60
2021/04/23 03:33:40;;;;;;;13.55;5.22;;;2.20;95.40;;;;;;5100270;28;20138;-60
2021/04/23 03:36:09;;;;;;;14.95;5.60;;;2.20;95.70;;;;;;5090406;27;20118;-60
2021/04/23 03:38:37;;;;;;;18.50;5.45;;;2.20;95.50;;;;;;5100778;28;20040;-60
2021/04/23 03:41:10;;;;;;;13.73;4.30;;;2.30;95.80;;;;;;5100170;27;20129;-60
2021/04/23 03:43:37;;;;;;;13.80;5.07;;;2.20;95.60;;;;;;5101857;27;20045;-60
2021/04/23 03:46:03;;;;;;;13.20;4.47;;;2.20;95.50;;;;;;5099818;27;20494;-60
2021/04/23 03:48:29;;;;;;;18.63;4.97;;;2.20;95.20;;;;;;5103737;28;20043;-60
2021/04/23 03:50:55;;;;;;;11.88;5.22;;;2.20;95.50;;;;;;5098789;27;20039;-60
2021/04/23 03:53:21;;;;;;;15.25;5.00;;;2.20;95.60;;;;;;5108492;27;20051;-60
2021/04/23 03:55:51;;;;;;;15.55;4.47;;;2.20;95.40;;;;;;5096655;27;20040;-60
2021/04/23 03:58:18;;;;;;;15.70;4.53;;;2.20;95.60;;;;;;5100069;27;20069;-60
2021/04/23 04:00:52;;;;;;;14.50;4.57;;;2.10;95.20;;;;;;5091157;27;20123;-60
2021/04/23 04:03:19;;;;;;;22.33;5.47;;;2.10;95.20;;;;;;5103338;27;20478;-60
2021/04/23 04:05:46;;;;;;;15.90;5.65;;;2.00;95.40;;;;;;5100508;28;20394;-60
2021/04/23 04:08:12;;;;;;;15.93;5.10;;;2.10;95.50;;;;;;5098650;28;20085;-60
2021/04/23 04:10:40;;;;;;;13.48;4.20;;;2.00;95.50;;;;;;5097920;27;20048;-62
2021/04/23 04:13:07;;;;;;;13.50;4.45;;;2.00;95.60;;;;;;5098199;27;20039;-62
2021/04/23 04:15:36;;;;;;;14.32;5.10;;;2.00;95.40;;;;;;5098336;28;20513;-62
2021/04/23 04:18:02;;;;;;;20.52;4.65;;;2.00;95.60;;;;;;5099083;27;20089;-62
2021/04/23 04:20:29;;;;;;;13.38;4.43;;;2.00;95.80;;;;;;5102104;27;20050;-62
2021/04/23 04:22:55;;;;;;;13.60;4.78;;;2.10;95.60;;;;;;5098616;27;20433;-62
2021/04/23 04:25:35;;;;;;;11.63;4.05;;;2.10;95.50;;;;;;5107889;27;20036;-62
2021/04/23 04:28:02;;;;;;;12.35;4.35;;;2.10;95.40;;;;;;5089340;28;20146;-62
2021/04/23 04:30:28;;;;;;;13.90;4.38;;;2.10;95.40;;;;;;5101528;28;20414;-62
2021/04/23 04:32:59;;;;;;;14.15;4.80;;;2.10;95.40;;;;;;5091565;27;20040;-60
2021/04/23 04:35:27;;;;;;;14.13;4.68;;;2.10;95.40;;;;;;5101379;27;20102;-60
2021/04/23 04:37:53;;;;;;;9.88;4.32;;;2.10;95.60;;;;;;5096483;28;20452;-60
2021/04/23 04:40:21;;;;;;;11.75;4.32;;;2.10;95.50;;;;;;5098004;28;20058;-62
2021/04/23 04:42:47;;;;;;;15.60;4.93;;;2.10;95.50;;;;;;5090971;28;20040;-62
2021/04/23 04:45:16;;;;;;;16.10;3.90;;;2.10;96.00;;;;;;5104302;28;20645;-62
2021/04/23 04:47:42;;;;;;;13.15;4.53;;;2.10;95.80;;;;;;5094078;28;20057;-62
2021/04/23 04:50:13;;;;;;;13.60;4.20;;;2.20;95.70;;;;;;5102349;28;20069;-61
2021/04/23 04:52:39;;;;;;;15.98;4.65;;;2.20;95.90;;;;;;5092264;28;20062;-61
2021/04/23 04:55:07;;;;;;;15.15;5.50;;;2.20;95.70;;;;;;5097617;28;20064;-60
2021/04/23 04:57:36;;;;;;;13.02;3.92;;;2.30;96.40;;;;;;5101177;28;20058;-61
2021/04/23 05:00:10;;;;;;;12.98;4.57;;;2.30;96.20;;;;;;5095874;28;20127;-60
2021/04/23 05:02:36;;;;;;;10.90;3.97;;;2.30;96.10;;;;;;5100443;28;20111;-60
2021/04/23 05:05:06;;;;;;;14.57;5.10;;;2.40;96.10;;;;;;5092989;28;20044;-61
2021/04/23 05:07:33;;;;;;;20.50;5.10;;;2.40;96.00;;;;;;5099217;28;20040;-61
2021/04/23 05:09:59;;;;;;;16.65;4.75;;;2.40;96.20;;;;;;5094395;28;20044;-62
2021/04/23 05:12:25;;;;;;;11.95;4.88;;;2.40;96.20;;;;;;5099688;28;20181;-64
2021/04/23 05:14:51;;;;;;;14.18;4.53;;;2.50;96.30;;;;;;5090287;28;20723;-63
2021/04/23 05:17:20;;;;;;;12.43;3.97;;;2.60;96.30;;;;;;5095775;28;20059;-61
2021/04/23 05:19:46;;;;;;;12.52;4.15;;;2.70;96.30;;;;;;5093376;28;20054;-61
2021/04/23 05:22:12;;;;;;;14.30;5.13;;;2.80;96.40;;;;;;5097722;28;20393;-62
2021/04/23 05:24:38;;;;;;;14.00;7.35;;;2.90;96.20;;;;;;5096243;28;20035;-61
2021/04/23 05:27:04;;;;;;;14.40;5.65;;;3.00;96.30;;;;;;5106143;28;20478;-63
2021/04/23 05:29:30;;;;;;;13.32;4.88;;;3.20;96.40;;;;;;5095923;28;20038;-62
2021/04/23 05:31:56;;;;;;;12.65;4.47;;;3.20;96.20;;;;;;5101962;28;20553;-61
2021/04/23 05:34:21;;;;;;;9.90;4.60;;;3.40;96.20;;;;;;5098945;28;20048;-62
2021/04/23 05:36:47;;;;;;;17.30;5.10;;;3.60;96.50;;;;;;5105238;28;20066;-61
2021/04/23 05:39:13;;;;;;;14.25;5.10;;;3.90;96.30;;;;;;5105467;28;20050;-61
2021/04/23 05:41:40;;;;;;;16.27;4.22;;;4.10;95.90;;;;;;5102668;27;20131;-61
2021/04/23 05:44:08;;;;;;;10.20;3.85;;;4.40;95.80;;;;;;5104207;28;20467;-61
2021/04/23 05:46:34;;;;;;;16.25;4.38;;;4.70;95.40;;;;;;5092438;28;20100;-61
2021/04/23 05:49:00;;;;;;;13.70;4.18;;;4.90;94.90;;;;;;5104490;28;20048;-61
2021/04/23 05:51:27;;;;;;;15.32;6.50;;;5.10;94.70;;;;;;5099132;28;20053;-61
2021/04/23 05:53:53;;;;;;;13.05;5.90;;;5.30;94.40;;;;;;5101692;28;20108;-61
2021/04/23 05:56:18;;;;;;;10.27;3.35;;;5.50;94.50;;;;;;5099221;28;20491;-61
2021/04/23 05:58:44;;;;;;;14.43;3.53;;;5.70;94.30;;;;;;5108618;28;20401;-61
2021/04/23 06:01:10;;;;;;;15.95;3.42;;;5.80;93.80;;;;;;5098819;28;20043;-61
2021/04/23 06:03:36;;;;;;;11.10;3.22;;;6.00;93.60;;;;;;5104156;28;20132;-62
2021/04/23 06:06:02;;;;;;;10.07;3.28;;;6.20;93.20;;;;;;5097404;28;20044;-61
2021/04/23 06:08:28;;;;;;;11.40;3.00;;;6.30;93.20;;;;;;5108091;28;20126;-61
2021/04/23 06:10:54;;;;;;;12.90;3.67;;;6.40;92.50;;;;;;5093073;28;20036;-62
2021/04/23 06:13:20;;;;;;;11.63;3.40;;;6.60;92.80;;;;;;5102997;28;20035;-61
2021/04/23 06:15:46;;;;;;;9.20;3.08;;;6.70;92.00;;;;;;5097577;28;20046;-62
2021/04/23 06:18:13;;;;;;;16.33;4.05;;;6.70;91.70;;;;;;5106699;28;20089;-64
2021/04/23 06:20:40;;;;;;;11.18;3.35;;;6.70;92.00;;;;;;5099923;28;20448;-62
2021/04/23 06:23:07;;;;;;;13.07;2.88;;;6.80;92.20;;;;;;5102482;27;20068;-61
2021/04/23 06:25:34;;;;;;;14.05;3.42;;;7.00;91.80;;;;;;5102535;28;20114;-62
2021/04/23 06:28:01;;;;;;;11.82;3.20;;;7.20;91.90;;;;;;5100873;28;20046;-62
2021/04/23 06:30:30;;;;;;;12.57;3.25;;;7.40;91.80;;;;;;5102134;28;20506;-62
2021/04/23 06:32:58;;;;;;;14.10;3.92;;;7.60;91.20;;;;;;5096609;28;20112;-62
2021/04/23 06:35:29;;;;;;;11.80;3.20;;;7.70;90.50;;;;;;5115594;27;20039;-62
2021/04/23 06:37:57;;;;;;;11.57;3.22;;;7.80;90.40;;;;;;5099035;28;20110;-62
2021/04/23 06:40:23;;;;;;;11.57;3.20;;;7.80;90.40;;;;;;5102690;28;20044;-60
2021/04/23 06:42:49;;;;;;;10.30;2.97;;;7.90;90.30;;;;;;5095891;28;20062;-61
2021/04/23 06:45:19;;;;;;;13.15;3.10;;;8.00;90.30;;;;;;5106991;28;20082;-63
2021/04/23 06:47:45;;;;;;;12.02;3.10;;;8.10;90.00;;;;;;5096211;28;20478;-62
2021/04/23 06:50:13;;;;;;;10.00;3.35;;;8.20;89.90;;;;;;5101949;28;20127;-62
2021/04/23 06:52:41;;;;;;;10.15;2.80;;;8.30;88.90;;;;;;5101393;28;20508;-62
2021/04/23 06:55:09;;;;;;;9.38;3.58;;;8.30;88.70;;;;;;5099350;28;20048;-63
2021/04/23 06:57:35;;;;;;;14.57;3.70;;;8.30;85.80;;;;;;5096939;28;20082;-62
2021/04/23 07:00:01;;;;;;;15.70;3.63;;;8.30;85.70;;;;;;5098933;28;20100;-63
2021/04/23 07:02:27;;;;;;;13.35;5.22;;;8.30;86.20;;;;;;5098277;28;20035;-63
2021/04/23 07:04:53;;;;;;;11.48;4.18;;;8.30;86.20;;;;;;5102113;28;20047;-64
2021/04/23 07:07:19;;;;;;;20.30;9.90;;;8.40;85.60;;;;;;5109901;28;20036;-64
2021/04/23 07:09:45;;;;;;;10.13;3.88;;;8.40;84.80;;;;;;5098703;28;20126;-63
2021/04/23 07:12:10;;;;;;;11.85;3.72;;;8.40;84.10;;;;;;5104078;28;20490;-62
2021/04/23 07:14:36;;;;;;;12.18;4.13;;;8.40;84.20;;;;;;5096927;28;20036;-62
2021/04/23 07:17:04;;;;;;;14.52;4.03;;;8.40;83.10;;;;;;5103866;28;20117;-62
2021/04/23 07:19:33;;;;;;;11.25;3.72;;;8.30;83.60;;;;;;5097171;28;20351;-63
2021/04/23 07:21:58;;;;;;;11.20;4.15;;;8.20;84.40;;;;;;5105074;28;20055;-64
2021/04/23 07:24:24;;;;;;;8.73;3.65;;;8.30;84.10;;;;;;5098473;28;20035;-62
2021/04/23 07:26:50;;;;;;;11.18;4.35;;;8.50;83.90;;;;;;5101694;28;20073;-64
2021/04/23 07:29:16;;;;;;;11.52;3.90;;;8.70;82.90;;;;;;5096999;28;20044;-63
2021/04/23 07:31:42;;;;;;;41.38;27.52;;;9.00;83.60;;;;;;5099570;28;20077;-62
2021/04/23 07:34:08;;;;;;;18.63;9.85;;;9.40;79.50;;;;;;5096309;28;20405;-63
2021/04/23 07:36:33;;;;;;;9.50;3.95;;;9.50;79.50;;;;;;5103686;28;20043;-62
2021/04/23 07:39:00;;;;;;;9.70;3.70;;;9.40;77.90;;;;;;5100499;27;20035;-62
2021/04/23 07:41:25;;;;;;;17.13;4.40;;;9.20;77.90;;;;;;5104112;28;20059;-63
2021/04/23 07:43:51;;;;;;;10.45;4.93;;;9.10;78.90;;;;;;5104380;28;20074;-61
2021/04/23 07:46:17;;;;;;;10.55;4.38;;;9.10;79.90;;;;;;5094875;28;20131;-63
2021/04/23 07:48:43;;;;;;;10.82;4.00;;;9.10;79.80;;;;;;5107213;28;20036;-63
2021/04/23 07:51:09;;;;;;;12.30;4.60;;;8.90;78.90;;;;;;5095363;28;20043;-62
2021/04/23 07:53:34;;;;;;;9.05;4.57;;;8.80;77.10;;;;;;5106848;28;20422;-63
2021/04/23 07:56:00;;;;;;;8.98;4.15;;;8.70;76.80;;;;;;5098211;28;20536;-63
2021/04/23 07:58:26;;;;;;;8.90;4.45;;;8.70;77.00;;;;;;5101937;28;20070;-63
2021/04/23 08:00:53;;;;;;;9.38;4.30;;;8.80;76.50;;;;;;5094287;28;20039;-63
2021/04/23 08:03:19;;;;;;;10.63;4.80;;;9.00;76.50;;;;;;5100558;28;20123;-61
2021/04/23 08:05:44;;;;;;;8.43;4.82;;;9.00;77.00;;;;;;5097669;28;20442;-61
2021/04/23 08:08:10;;;;;;;11.70;4.10;;;8.90;76.30;;;;;;5101111;28;20040;-63
2021/04/23 08:10:37;;;;;;;7.28;5.00;;;8.90;77.10;;;;;;5094299;28;20485;-62
2021/04/23 08:13:04;;;;;;;7.95;4.07;;;9.10;75.60;;;;;;5099737;28;20079;-63
2021/04/23 08:15:30;;;;;;;7.40;4.40;;;9.20;75.60;;;;;;5096436;28;20039;-63
2021/04/23 08:18:00;;;;;;;7.97;4.78;;;9.30;75.30;;;;;;5103582;28;20559;-63
2021/04/23 08:20:27;;;;;;;10.57;4.85;;;9.30;74.70;;;;;;5097745;28;20051;-62
2021/04/23 08:22:53;;;;;;;19.60;12.32;;;9.20;73.90;;;;;;5091759;28;20158;-62
2021/04/23 08:25:20;;;;;;;10.82;6.47;;;9.10;75.00;;;;;;5096669;28;20115;-62
2021/04/23 08:27:48;;;;;;;10.25;4.80;;;9.20;75.50;;;;;;5091534;28;20055;-63
2021/04/23 08:30:14;;;;;;;6.45;4.25;;;9.20;74.10;;;;;;5098651;28;20061;-61
2021/04/23 08:32:42;;;;;;;8.75;4.20;;;9.20;73.50;;;;;;5093319;28;20130;-61
2021/04/23 08:35:09;;;;;;;11.38;4.43;;;9.20;73.30;;;;;;5098794;28;20040;-61
2021/04/23 08:37:36;;;;;;;8.77;4.95;;;9.30;73.40;;;;;;5093752;28;20382;-61
2021/04/23 08:40:04;;;;;;;7.03;4.63;;;9.40;73.60;;;;;;5100765;28;20044;-61
2021/04/23 08:42:31;;;;;;;11.43;4.25;;;10.40;74.80;;;;;;5092003;28;20116;-62
2021/04/23 08:44:58;;;;;;;10.40;5.43;;;11.40;70.00;;;;;;5102173;28;20075;-62
2021/04/23 08:47:24;;;;;;;10.27;4.18;;;11.80;66.80;;;;;;5091179;28;20690;-62
2021/04/23 08:49:51;;;;;;;8.50;4.20;;;12.20;61.90;;;;;;5100869;28;20112;-61
2021/04/23 08:52:18;;;;;;;7.93;4.22;;;12.10;61.30;;;;;;5097585;28;20031;-61
2021/04/23 08:54:45;;;;;;;8.25;4.05;;;11.70;62.80;;;;;;5096453;28;20047;-62
2021/04/23 08:57:11;;;;;;;8.63;4.25;;;11.30;63.70;;;;;;5095683;28;20040;-61
2021/04/23 08:59:36;;;;;;;9.13;4.68;;;11.10;64.00;;;;;;5100148;28;20483;-61
2021/04/23 09:02:02;;;;;;;14.00;9.20;;;10.90;65.80;;;;;;5104791;28;20044;-61
2021/04/23 09:04:28;;;;;;;9.13;4.15;;;10.80;66.10;;;;;;5100297;28;20047;-61
2021/04/23 09:07:02;;;;;;;9.82;5.28;;;10.70;66.30;;;;;;5103334;28;20532;-61
2021/04/23 09:09:42;;;;;;;8.77;4.03;;;11.80;66.20;;;;;;5094073;28;20074;-61
2021/04/23 09:12:24;;;;;;;7.30;4.03;;;13.00;59.90;;;;;;5099712;28;20301;-61
2021/04/23 09:14:54;;;;;;;7.07;4.00;;;13.60;56.80;;;;;;5099285;28;20118;-61
2021/04/23 09:17:25;;;;;;;28.20;21.02;;;13.00;57.90;;;;;;5102895;28;20044;-61
2021/04/23 09:19:55;;;;;;;8.65;4.07;;;12.50;59.60;;;;;;5097852;28;20052;-61
2021/04/23 09:22:28;;;;;;;9.27;4.28;;;11.90;59.50;;;;;;5102731;28;20399;-62
2021/04/23 09:24:58;;;;;;;7.22;3.75;;;11.40;60.10;;;;;;5097428;28;20414;-62
2021/04/23 09:27:36;;;;;;;6.13;3.75;;;11.10;62.40;;;;;;5104582;28;20048;-62
2021/04/23 09:30:12;;;;;;;6.72;4.07;;;11.30;59.90;;;;;;5099191;28;20247;-62
2021/04/23 09:32:41;;;;;;;8.07;3.63;;;12.40;61.30;;;;;;5101728;28;20055;-62
2021/04/23 09:35:15;;;;;;;9.73;3.78;;;13.40;60.30;;;;;;5095852;28;20043;-63
2021/04/23 09:37:48;;;;;;;8.63;3.63;;;13.50;55.70;;;;;;5102708;28;20106;-62
2021/04/23 09:40:32;;;;;;;7.25;3.88;;;13.30;57.10;;;;;;5097070;28;20047;-62
2021/04/23 09:43:00;;;;;;;7.03;3.47;;;12.90;56.00;;;;;;5104731;28;20093;-62
2021/04/23 09:45:28;;;;;;;8.38;4.32;;;12.40;57.30;;;;;;5098218;28;20121;-62
2021/04/23 09:47:56;;;;;;;9.32;4.25;;;11.80;58.00;;;;;;5100711;28;20039;-62
2021/04/23 09:50:33;;;;;;;9.73;3.65;;;11.50;60.40;;;;;;5096398;28;20042;-62
2021/04/23 09:52:59;;;;;;;7.88;3.88;;;11.30;61.40;;;;;;5104019;28;20046;-62
2021/04/23 09:55:32;;;;;;;8.93;3.95;;;10.90;61.10;;;;;;5094117;28;20387;-62
2021/04/23 09:57:59;;;;;;;7.05;3.22;;;10.80;61.60;;;;;;5106631;28;20222;-62
2021/04/23 10:00:29;;;;;;;5.88;3.22;;;11.50;63.10;;;;;;5098170;28;20265;-61
2021/04/23 10:02:59;;;;;;;7.85;3.03;;;12.60;61.80;;;;;;5101296;28;20109;-61
2021/04/23 10:05:38;;;;;;;3.72;2.75;;;13.40;56.00;;;;;;5099601;28;20043;-61
2021/04/23 10:08:06;;;;;;;8.05;3.03;;;14.00;53.00;;;;;;5108374;28;20066;-62
2021/04/23 10:10:32;;;;;;;6.80;3.47;;;14.20;53.20;;;;;;5101694;28;20036;-62
2021/04/23 10:13:03;;;;;;;5.63;3.38;;;14.10;51.90;;;;;;5101072;28;20039;-61
2021/04/23 10:15:31;;;;;;;7.57;3.70;;;13.70;51.60;;;;;;5097386;28;20593;-62
2021/04/23 10:18:08;;;;;;;4.47;3.13;;;13.30;53.90;;;;;;5105194;28;20043;-62
2021/04/23 10:20:45;;;;;;;5.78;3.65;;;13.00;55.20;;;;;;5098131;28;20168;-62
2021/04/23 10:23:14;;;;;;;5.88;4.05;;;12.90;56.50;;;;;;5105383;28;20067;-61
2021/04/23 10:25:40;;;;;;;8.88;3.88;;;12.70;56.10;;;;;;5094606;28;20035;-62
2021/04/23 10:28:09;;;;;;;5.70;3.65;;;12.60;56.70;;;;;;5098181;28;20131;-61
2021/04/23 10:30:41;;;;;;;7.13;3.88;;;12.40;55.50;;;;;;5100818;28;20497;-61
2021/04/23 10:33:13;;;;;;;6.85;3.75;;;12.50;56.30;;;;;;5105074;28;20039;-61
2021/04/23 10:35:41;;;;;;;7.93;3.63;;;12.80;56.30;;;;;;5104370;27;20040;-61
2021/04/23 10:38:10;;;;;;;37.40;31.08;;;13.00;52.90;;;;;;5098319;28;20069;-61
2021/04/23 10:40:37;;;;;;;27.42;24.30;;;13.00;52.90;;;;;;5100131;28;20612;-62
2021/04/23 10:43:15;;;;;;;8.57;4.22;;;12.80;54.40;;;;;;5096769;27;20464;-63
2021/04/23 10:45:44;;;;;;;9.38;5.90;;;12.60;54.50;;;;;;5106724;28;20173;-63
2021/04/23 10:48:12;;;;;;;10.65;6.55;;;12.40;54.80;;;;;;5094130;28;20035;-62
2021/04/23 10:50:50;;;;;;;8.35;3.97;;;12.20;55.20;;;;;;5102650;28;20246;-62
2021/04/23 10:53:44;;;;;;;8.23;3.80;;;12.30;55.70;;;;;;5093018;28;20032;-62
2021/04/23 10:56:33;;;;;;;6.95;3.97;;;12.80;55.90;;;;;;5098915;28;20036;-63
2021/04/23 10:59:29;;;;;;;6.25;3.47;;;13.80;55.50;;;;;;5101096;28;20503;-62
2021/04/23 11:02:13;;;;;;;6.82;4.32;;;14.50;46.80;;;;;;5091680;28;20040;-63
2021/04/23 11:04:57;;;;;;;9.88;4.30;;;14.90;48.20;;;;;;5101585;28;20496;-61
2021/04/23 11:07:23;;;;;;;8.57;4.80;;;14.80;44.80;;;;;;5097181;28;20467;-62
2021/04/23 11:10:04;;;;;;;6.32;4.30;;;14.40;48.40;;;;;;5099588;28;20047;-62
2021/04/23 11:12:30;;;;;;;7.30;3.92;;;14.20;48.80;;;;;;5095760;28;20122;-61
2021/04/23 11:15:16;;;;;;;8.25;4.20;;;13.90;49.20;;;;;;5098821;28;20161;-61
2021/04/23 11:17:42;;;;;;;7.85;4.47;;;13.50;49.00;;;;;;5096166;28;20067;-61
2021/04/23 11:20:23;;;;;;;8.63;5.82;;;13.70;49.60;;;;;;5099531;28;20051;-63
2021/04/23 11:22:55;;;;;;;6.72;4.80;;;14.30;46.80;;;;;;5095327;28;20090;-62
2021/04/23 11:25:22;;;;;;;8.05;4.30;;;14.70;46.10;;;;;;5097731;28;20060;-62
2021/04/23 11:28:00;;;;;;;11.13;7.07;;;15.20;46.00;;;;;;5095417;28;20075;-63
2021/04/23 11:30:27;;;;;;;5.70;4.07;;;15.50;44.20;;;;;;5099614;28;20589;-64
2021/04/23 11:32:56;;;;;;;4.65;3.75;;;16.00;46.30;;;;;;5099935;28;20506;-64
2021/04/23 11:35:26;;;;;;;6.63;3.88;;;16.60;43.40;;;;;;5097351;28;20040;-64
2021/04/23 11:37:54;;;;;;;5.10;4.10;;;16.90;42.20;;;;;;5100752;27;20040;-63
2021/04/23 11:40:30;;;;;;;4.32;3.63;;;16.90;42.50;;;;;;5093639;28;20038;-64
2021/04/23 11:43:02;;;;;;;5.78;3.70;;;17.50;42.40;;;;;;5100139;28;20122;-65
2021/04/23 11:45:33;;;;;;;6.35;3.70;;;17.90;41.10;;;;;;5096729;28;20514;-64
2021/04/23 11:48:04;;;;;;;6.13;3.40;;;17.30;39.20;;;;;;5102895;28;20043;-63
2021/04/23 11:50:37;;;;;;;6.10;3.55;;;17.40;40.60;;;;;;5091688;28;20108;-64
2021/04/23 11:53:13;;;;;;;5.53;3.35;;;17.70;40.10;;;;;;5102625;28;20141;-64
2021/04/23 11:55:44;;;;;;;7.28;3.70;;;18.40;39.60;;;;;;5090035;28;20101;-63
2021/04/23 11:58:11;;;;;;;5.00;3.35;;;18.50;37.80;;;;;;5097759;28;20371;-63
2021/04/23 12:00:44;;;;;;;5.72;3.20;;;18.20;37.20;;;;;;5094061;28;20039;-64
2021/04/23 12:03:16;;;;;;;4.68;3.13;;;17.50;37.90;;;;;;5098409;28;20133;-64
2021/04/23 12:05:47;;;;;;;6.13;2.75;;;16.90;39.40;;;;;;5090879;28;20409;-64
2021/04/23 12:08:17;;;;;;;5.63;3.03;;;16.90;40.00;;;;;;5103104;28;20161;-65
2021/04/23 12:10:47;;;;;;;15.00;3.53;;;17.30;39.60;;;;;;5091088;28;20043;-65
2021/04/23 12:13:15;;;;;;;5.70;2.75;;;17.30;38.40;;;;;;5098970;28;20031;-65
2021/04/23 12:15:43;;;;;;;8.65;6.15;;;17.60;38.40;;;;;;5094794;28;20039;-65
2021/04/23 12:18:10;;;;;;;4.40;3.10;;;18.10;38.40;;;;;;5099119;28;20051;-65
2021/04/23 12:20:40;;;;;;;6.90;3.28;;;17.80;36.50;;;;;;5096087;28;20039;-65
2021/04/23 12:23:15;;;;;;;4.97;3.25;;;18.20;39.00;;;;;;5097807;28;20070;-65
2021/04/23 12:25:45;;;;;;;6.38;3.03;;;18.60;36.40;;;;;;5090720;28;20044;-65
2021/04/23 12:28:34;;;;;;;6.28;2.90;;;19.00;37.30;;;;;;5099150;28;20425;-65
2021/04/23 12:31:02;;;;;;;7.28;2.72;;;18.10;35.80;;;;;;5093211;28;20061;-65
2021/04/23 12:33:48;;;;;;;5.97;2.55;;;17.20;37.60;;;;;;5098569;28;20054;-65
2021/04/23 12:36:24;;;;;;;4.80;2.40;;;17.30;37.40;;;;;;5090222;28;20040;-65
2021/04/23 12:39:00;;;;;;;5.60;2.65;;;17.10;38.50;;;;;;5098133;28;20434;-65
2021/04/23 12:41:36;;;;;;;6.15;2.65;;;16.60;37.30;;;;;;5092075;28;20139;-65
2021/04/23 12:44:05;;;;;;;4.80;2.53;;;16.70;40.50;;;;;;5097597;28;20032;-65
2021/04/23 12:46:35;;;;;;;4.75;3.00;;;17.10;39.50;;;;;;5092383;28;20052;-65
2021/04/23 12:49:17;;;;;;;3.80;2.63;;;17.30;40.30;;;;;;5101255;27;20475;-65
2021/04/23 12:51:53;;;;;;;5.90;2.70;;;17.60;37.50;;;;;;5095376;28;20039;-65
2021/04/23 12:54:32;;;;;;;5.78;2.78;;;17.60;37.20;;;;;;5099956;28;20071;-65
2021/04/23 12:57:10;;;;;;;6.40;2.88;;;17.90;38.20;;;;;;5090913;28;20067;-65